This is the latest recevied weather packets stored in our database for station/object NM5PB. If no packets are shown the sender has not sent any weather packets the latest 10 day(s).
| Time | Temp. | Humidity | Pressure | Rain* | Wind** | Luminosity | Snow |
|---|---|---|---|---|---|---|---|
| 1777707064 | 2.22° C | 82% | - | 0 mm | - | - | - |
| 1777706464 | 2.22° C | 80% | - | 0 mm | - | - | - |
| 1777705864 | 2.78° C | 79% | - | 0 mm | - | - | - |
| 1777705264 | 2.78° C | 78% | - | 0 mm | - | - | - |
| 1777704664 | 2.78° C | 77% | - | 0 mm | - | - | - |
| 1777704064 | 2.78° C | 76% | - | 0 mm | - | - | - |
| 1777703464 | 3.33° C | 74% | - | 0 mm | - | - | - |
| 1777702864 | 2.78° C | 74% | - | 0 mm | - | - | - |
| 1777702264 | 2.78° C | 76% | - | 0 mm | - | - | - |
| 1777701664 | 2.78° C | 74% | - | 0 mm | - | - | - |
| 1777701064 | 2.22° C | 77% | - | 0 mm | - | - | - |
| 1777700464 | 2.22° C | 78% | - | 0 mm | - | - | - |
| 1777699864 | 2.22° C | 78% | - | 0 mm | - | - | - |
| 1777699264 | 2.22° C | 78% | - | 0 mm | - | - | - |
| 1777698664 | 2.22° C | 77% | - | 0 mm | - | - | - |
| 1777698064 | 2.78° C | 77% | - | 0 mm | - | - | - |
| 1777697464 | 2.78° C | 77% | - | 0 mm | - | - | - |
| 1777696864 | 3.33° C | 77% | - | 0 mm | - | - | - |
| 1777696264 | 3.89° C | 74% | - | 0 mm | - | - | - |
| 1777695664 | 3.89° C | 78% | - | 0 mm | - | - | - |
| 1777695064 | 3.89° C | 77% | - | 0 mm | - | - | - |
| 1777694464 | 3.89° C | 76% | - | 0 mm | - | - | - |
| 1777693864 | 4.44° C | 73% | - | 0 mm | - | - | - |
| 1777693264 | 5° C | 71% | - | 0 mm | - | - | - |
| 1777692664 | 5.56° C | 69% | - | 0 mm | - | - | - |
* Rain latest hour (hover to see other rain measurements)
** Current wind speed in m/s (hover to see current wind gust speed)